createdAt,value
2023-01-19T00:01:49.921Z,28.27
2023-01-19T00:06:52.007Z,29.83
2023-01-19T00:11:52.863Z,31.45
2023-01-19T00:16:54.181Z,23.02
2023-01-19T00:21:56.361Z,34.63
2023-01-19T00:26:59.222Z,21.48
2023-01-19T00:31:59.684Z,20.08
2023-01-19T00:37:03.161Z,25.98
2023-01-19T00:42:26.946Z,21.58
2023-01-19T00:47:27.210Z,28.33
2023-01-19T00:52:27.772Z,26.08
2023-01-19T00:57:29.679Z,18.83
2023-01-19T01:02:31.770Z,25.98
2023-01-19T01:07:43.789Z,25.42
2023-01-19T01:12:55.555Z,32.65
2023-01-19T01:18:04.263Z,22.27
2023-01-19T01:23:05.645Z,21.05
2023-01-19T01:28:09.323Z,32.13
2023-01-19T01:33:08.434Z,47.30
2023-01-19T01:38:11.280Z,34.13
2023-01-19T01:43:19.545Z,27.45
2023-01-19T01:48:23.946Z,28.65
2023-01-19T01:53:34.113Z,26.83
2023-01-19T01:58:37.134Z,36.60
2023-01-19T02:03:35.843Z,36.13
2023-01-19T02:09:18.797Z,23.45
2023-01-19T02:14:16.743Z,30.45
2023-01-19T02:19:24.765Z,26.05
2023-01-19T02:24:26.592Z,23.05
2023-01-19T02:29:28.593Z,25.35
2023-01-19T02:34:34.395Z,39.28
2023-01-19T02:39:37.718Z,28.05
2023-01-19T02:44:35.848Z,38.65
2023-01-19T02:49:34.940Z,24.70
2023-01-19T02:55:13.256Z,25.65
2023-01-19T03:00:48.818Z,27.88
2023-01-19T03:05:57.520Z,25.17
2023-01-19T03:11:12.668Z,30.02
2023-01-19T03:16:23.389Z,18.77
2023-01-19T03:21:28.453Z,36.78
2023-01-19T03:26:30.563Z,24.05
2023-01-19T03:31:30.931Z,26.80
2023-01-19T03:36:34.826Z,25.13
2023-01-19T03:41:34.605Z,27.52
2023-01-19T03:46:36.450Z,27.30
2023-01-19T03:51:39.973Z,30.27
2023-01-19T03:56:39.719Z,25.25
2023-01-19T04:01:41.722Z,34.22
2023-01-19T04:06:50.858Z,33.65
2023-01-19T04:11:53.303Z,24.27
2023-01-19T04:16:51.542Z,32.70
2023-01-19T04:21:52.792Z,28.77
2023-01-19T04:26:53.919Z,33.85
2023-01-19T04:31:54.849Z,32.35
2023-01-19T04:37:38.991Z,28.50
2023-01-19T04:42:38.639Z,31.00
2023-01-19T04:47:40.810Z,23.90
2023-01-19T04:52:44.688Z,35.80
2023-01-19T04:57:45.954Z,30.70
2023-01-19T05:02:48.355Z,28.02
2023-01-19T05:07:48.576Z,26.50
2023-01-19T05:12:48.227Z,22.85
2023-01-19T05:17:51.045Z,33.60
2023-01-19T05:23:03.077Z,33.72
2023-01-19T05:28:07.899Z,32.30
2023-01-19T05:33:19.412Z,31.10
2023-01-19T05:38:23.366Z,36.85
2023-01-19T05:43:35.323Z,33.95
2023-01-19T05:48:36.959Z,30.55
2023-01-19T05:53:35.601Z,38.83
2023-01-19T05:58:40.176Z,35.20
2023-01-19T06:03:41.603Z,36.92
2023-01-19T06:08:41.685Z,29.77
2023-01-19T06:13:42.279Z,36.83
2023-01-19T06:18:42.179Z,33.17
2023-01-19T06:23:45.417Z,32.70
2023-01-19T06:28:46.717Z,35.30
2023-01-19T06:33:50.418Z,25.02
2023-01-19T06:38:49.786Z,47.35
2023-01-19T06:43:50.487Z,41.97
2023-01-19T06:48:49.451Z,31.77
2023-01-19T06:53:51.135Z,38.60
2023-01-19T06:58:55.451Z,44.80
2023-01-19T07:03:57.232Z,34.95
2023-01-19T07:08:58.193Z,41.13
2023-01-19T07:14:06.282Z,43.13
2023-01-19T07:19:05.753Z,39.22
2023-01-19T07:24:24.067Z,29.55
2023-01-19T07:29:25.536Z,35.67
2023-01-19T07:34:28.390Z,41.90
2023-01-19T07:39:26.629Z,40.65
2023-01-19T07:44:25.641Z,28.48
2023-01-19T07:49:27.201Z,39.38
2023-01-19T07:54:26.505Z,38.17
2023-01-19T07:59:27.863Z,38.63
2023-01-19T08:04:28.044Z,47.92
2023-01-19T08:09:29.331Z,29.35
2023-01-19T08:14:27.498Z,37.22
2023-01-19T08:19:26.670Z,29.77
2023-01-19T08:24:28.728Z,46.78
2023-01-19T08:29:35.549Z,52.15
2023-01-19T08:34:39.289Z,51.00
2023-01-19T08:39:40.964Z,45.97
2023-01-19T08:44:57.399Z,37.63
2023-01-19T08:50:06.774Z,29.45
2023-01-19T08:55:06.247Z,31.77
2023-01-19T09:00:08.130Z,43.08
2023-01-19T09:05:10.527Z,38.58
2023-01-19T09:10:17.708Z,43.33
2023-01-19T09:15:25.759Z,42.95
2023-01-19T09:20:24.462Z,35.65
2023-01-19T09:25:27.531Z,44.80
2023-01-19T09:30:27.947Z,45.88
2023-01-19T09:35:28.367Z,41.92
2023-01-19T09:40:27.871Z,50.30
2023-01-19T09:45:47.674Z,51.00
2023-01-19T09:50:48.588Z,44.15
2023-01-19T09:55:51.384Z,49.88
2023-01-19T10:01:03.817Z,36.67
2023-01-19T10:06:05.525Z,52.17
2023-01-19T10:11:06.676Z,39.70
2023-01-19T10:16:24.474Z,57.22
2023-01-19T10:21:30.240Z,42.55
2023-01-19T10:26:39.458Z,46.80
2023-01-19T10:31:39.108Z,43.67
2023-01-19T10:36:40.559Z,28.98
2023-01-19T10:41:53.328Z,42.85
2023-01-19T10:46:54.504Z,38.00
2023-01-19T10:51:55.304Z,42.65
2023-01-19T10:57:05.341Z,45.78
2023-01-19T11:02:14.041Z,40.55
2023-01-19T11:07:20.047Z,38.65
2023-01-19T11:12:23.869Z,31.13
2023-01-19T11:17:31.003Z,29.92
2023-01-19T11:22:34.280Z,36.42
2023-01-19T11:27:35.376Z,41.85
2023-01-19T11:32:37.254Z,36.10
2023-01-19T11:37:37.595Z,36.47
2023-01-19T11:42:37.360Z,36.00
2023-01-19T11:47:44.440Z,41.53
2023-01-19T11:52:48.656Z,32.55
2023-01-19T11:57:52.820Z,32.35
2023-01-19T12:03:05.911Z,30.17
2023-01-19T12:08:08.155Z,28.38
2023-01-19T12:13:15.515Z,38.03
2023-01-19T12:18:30.274Z,34.55
2023-01-19T12:23:57.460Z,33.20
2023-01-19T12:29:01.570Z,31.50
2023-01-19T12:34:25.468Z,31.88
2023-01-19T12:39:26.681Z,25.10
2023-01-19T12:44:30.627Z,25.10
2023-01-19T12:49:43.994Z,29.35
2023-01-19T12:54:54.774Z,30.40
2023-01-19T13:00:02.061Z,26.75
2023-01-19T13:05:17.528Z,31.00
2023-01-19T13:10:55.550Z,35.78
2023-01-19T13:15:57.774Z,27.92
2023-01-19T13:21:10.164Z,24.00
2023-01-19T13:26:17.991Z,27.58
2023-01-19T13:31:21.385Z,30.67
2023-01-19T13:36:26.377Z,23.10
2023-01-19T13:41:43.808Z,23.90
2023-01-19T13:46:43.103Z,14.65
2023-01-19T13:51:43.048Z,31.92
2023-01-19T13:56:51.569Z,25.67
2023-01-19T14:01:51.606Z,23.85
2023-01-19T14:06:55.745Z,20.10
2023-01-19T14:17:29.350Z,21.17
2023-01-19T14:22:44.229Z,16.05
2023-01-19T14:27:42.085Z,20.27
2023-01-19T14:33:07.108Z,25.85
2023-01-19T14:38:11.460Z,21.25
2023-01-19T14:43:12.488Z,19.30
2023-01-19T14:48:31.791Z,20.98
2023-01-19T14:53:43.893Z,15.18
2023-01-19T14:58:46.867Z,18.35
2023-01-19T15:03:48.276Z,14.52
2023-01-19T15:09:14.120Z,15.05
2023-01-19T15:14:18.368Z,11.57
2023-01-19T15:19:21.063Z,19.95
2023-01-19T15:24:21.935Z,18.92
2023-01-19T15:29:25.434Z,11.45
2023-01-19T15:34:24.795Z,19.30
2023-01-19T15:39:32.539Z,15.02
2023-01-19T15:44:32.913Z,12.57
2023-01-19T15:49:34.068Z,60.28
2023-01-19T15:54:34.291Z,7.88
2023-01-19T15:59:34.358Z,18.45
2023-01-19T16:04:35.039Z,11.50
2023-01-19T16:09:35.531Z,21.08
2023-01-19T16:14:34.710Z,15.23
2023-01-19T16:19:32.710Z,7.53
2023-01-19T16:24:34.459Z,12.68
2023-01-19T16:29:34.302Z,13.02
2023-01-19T16:34:34.372Z,8.27
2023-01-19T16:39:34.109Z,6.32
2023-01-19T16:44:34.631Z,10.93
2023-01-19T16:49:38.086Z,11.77
2023-01-19T16:54:39.246Z,11.15
2023-01-19T16:59:40.082Z,14.05
2023-01-19T17:04:37.818Z,6.97
2023-01-19T17:10:07.180Z,9.52
2023-01-19T17:15:06.594Z,16.13
2023-01-19T17:20:06.244Z,13.90
2023-01-19T17:25:05.249Z,10.63
2023-01-19T17:30:04.661Z,13.50
2023-01-19T17:35:04.075Z,11.43
2023-01-19T17:40:09.066Z,11.98
2023-01-19T17:45:08.929Z,15.15
2023-01-19T17:50:56.252Z,10.05
2023-01-19T17:56:22.449Z,6.28
2023-01-19T18:01:28.952Z,7.20
2023-01-19T18:06:35.664Z,12.00
2023-01-19T18:11:42.794Z,9.18
2023-01-19T18:16:43.317Z,14.23
2023-01-19T18:21:48.557Z,10.27
2023-01-19T18:26:50.829Z,10.00
2023-01-19T18:31:52.015Z,19.30
2023-01-19T18:42:58.038Z,10.38
2023-01-19T18:48:15.478Z,8.73
2023-01-19T18:53:35.010Z,10.93
2023-01-19T18:58:52.906Z,15.27
2023-01-19T19:03:54.942Z,9.35
2023-01-19T19:09:00.908Z,10.35
2023-01-19T19:14:11.398Z,10.98
2023-01-19T19:19:16.674Z,11.15
2023-01-19T19:24:16.809Z,16.10
2023-01-19T19:29:44.274Z,13.85
2023-01-19T19:34:56.817Z,11.52
2023-01-19T19:39:57.978Z,12.27
2023-01-19T19:45:00.393Z,18.58
2023-01-19T19:50:05.968Z,8.95
2023-01-19T19:55:15.311Z,13.00
2023-01-19T20:00:16.614Z,8.32
2023-01-19T20:05:30.849Z,12.38
2023-01-19T20:10:40.599Z,15.95
2023-01-19T20:15:49.566Z,20.85
2023-01-19T20:20:50.668Z,11.52
2023-01-19T20:25:53.536Z,16.13
2023-01-19T20:30:55.465Z,21.60
2023-01-19T20:35:57.688Z,17.95
2023-01-19T20:41:01.776Z,12.68
2023-01-19T20:51:21.024Z,9.75
2023-01-19T20:56:20.967Z,7.40
2023-01-19T21:01:25.231Z,5.57
2023-01-19T21:06:26.647Z,9.30
2023-01-19T21:11:31.567Z,6.75
2023-01-19T21:16:39.778Z,4.25
2023-01-19T21:21:39.073Z,4.45
2023-01-19T21:26:57.850Z,4.85
2023-01-19T21:32:01.709Z,4.53
2023-01-19T21:37:03.565Z,13.48
2023-01-19T21:42:03.190Z,2.47
2023-01-19T21:47:18.145Z,8.10
2023-01-19T21:52:23.632Z,5.80
2023-01-19T21:57:36.423Z,4.82
2023-01-19T22:02:39.931Z,10.27
2023-01-19T22:07:41.785Z,5.25
2023-01-19T22:12:45.046Z,10.10
2023-01-19T22:17:54.275Z,5.75
2023-01-19T22:23:17.326Z,4.85
2023-01-19T22:28:21.084Z,6.45
2023-01-19T22:33:31.734Z,3.42
2023-01-19T22:38:53.442Z,5.68
2023-01-19T22:43:56.918Z,3.70
2023-01-19T22:48:59.597Z,2.60
2023-01-19T22:54:01.439Z,7.78
2023-01-19T22:59:00.950Z,6.82
2023-01-19T23:04:04.987Z,3.80
2023-01-19T23:14:13.519Z,9.88
2023-01-19T23:19:19.043Z,5.32
2023-01-19T23:24:24.697Z,7.07
2023-01-19T23:29:29.493Z,7.07
2023-01-19T23:34:30.562Z,13.55
2023-01-19T23:39:29.457Z,5.38
2023-01-19T23:44:29.660Z,6.18
2023-01-19T23:49:29.035Z,4.70
2023-01-19T23:54:31.898Z,7.30
2023-01-19T23:59:33.208Z,8.73
